createdAt,value
2018-11-10T00:02:15.975Z,30.97
2018-11-10T00:04:44.417Z,31.67
2018-11-10T00:07:12.949Z,31.07
2018-11-10T00:09:41.287Z,30.33
2018-11-10T00:12:09.738Z,30.97
2018-11-10T00:14:38.201Z,27.70
2018-11-10T00:17:07.135Z,28.17
2018-11-10T00:19:35.480Z,28.37
2018-11-10T00:22:04.067Z,28.73
2018-11-10T00:24:32.636Z,28.50
2018-11-10T00:27:01.267Z,30.23
2018-11-10T00:29:29.548Z,30.47
2018-11-10T00:31:57.932Z,28.97
2018-11-10T00:34:26.363Z,28.30
2018-11-10T00:36:54.818Z,28.73
2018-11-10T00:39:23.138Z,28.80
2018-11-10T00:41:51.451Z,27.60
2018-11-10T00:44:19.759Z,28.97
2018-11-10T00:46:48.149Z,32.80
2018-11-10T00:49:16.716Z,29.87
2018-11-10T00:51:45.583Z,31.90
2018-11-10T00:54:14.013Z,28.83
2018-11-10T00:56:42.385Z,28.43
2018-11-10T00:59:10.687Z,28.73
2018-11-10T01:01:39.026Z,32.27
2018-11-10T01:04:07.446Z,34.10
2018-11-10T01:06:37.403Z,33.43
2018-11-10T01:09:07.697Z,31.27
2018-11-10T01:11:36.035Z,30.30
2018-11-10T01:14:04.406Z,29.37
2018-11-10T01:16:32.763Z,28.60
2018-11-10T01:19:01.043Z,26.77
2018-11-10T01:21:29.368Z,26.10
2018-11-10T01:23:57.658Z,26.77
2018-11-10T01:26:25.986Z,28.17
2018-11-10T01:28:54.341Z,28.67
2018-11-10T01:31:22.780Z,29.50
2018-11-10T01:33:51.180Z,29.30
2018-11-10T01:36:19.475Z,30.63
2018-11-10T01:38:47.838Z,31.63
2018-11-10T01:41:16.297Z,30.83
2018-11-10T01:43:44.696Z,28.77
2018-11-10T01:46:12.983Z,26.90
2018-11-10T01:48:41.321Z,28.57
2018-11-10T01:51:09.610Z,28.03
2018-11-10T01:53:37.918Z,27.90
2018-11-10T01:56:06.391Z,26.90
2018-11-10T01:58:34.752Z,26.60
2018-11-10T02:01:03.072Z,25.57
2018-11-10T02:03:31.394Z,25.80
2018-11-10T02:05:59.734Z,25.90
2018-11-10T02:08:28.104Z,26.50
2018-11-10T02:10:56.392Z,25.93
2018-11-10T02:13:24.709Z,25.80
2018-11-10T02:15:53.013Z,27.27
2018-11-10T02:18:21.347Z,29.07
2018-11-10T02:20:49.674Z,27.40
2018-11-10T02:23:18.589Z,25.07
2018-11-10T02:25:47.001Z,25.97
2018-11-10T02:28:15.679Z,24.97
2018-11-10T02:30:44.354Z,24.27
2018-11-10T02:33:12.698Z,26.37
2018-11-10T02:35:41.006Z,26.20
2018-11-10T02:38:09.331Z,24.97
2018-11-10T02:40:37.627Z,26.00
2018-11-10T02:43:06.193Z,26.73
2018-11-10T02:45:34.779Z,26.00
2018-11-10T02:48:03.099Z,24.90
2018-11-10T02:50:31.433Z,25.20
2018-11-10T02:52:59.735Z,23.77
2018-11-10T02:55:28.183Z,26.00
2018-11-10T02:57:56.770Z,25.53
2018-11-10T03:00:25.096Z,24.43
2018-11-10T03:02:53.418Z,24.63
2018-11-10T03:05:21.699Z,23.73
2018-11-10T03:07:50.022Z,23.97
2018-11-10T03:10:18.308Z,25.07
2018-11-10T03:12:46.682Z,24.27
2018-11-10T03:15:14.982Z,25.67
2018-11-10T03:17:43.315Z,23.63
2018-11-10T03:20:13.648Z,24.07
2018-11-10T03:22:42.020Z,22.70
2018-11-10T03:25:10.692Z,23.23
2018-11-10T03:27:39.157Z,23.20
2018-11-10T03:30:07.793Z,23.10
2018-11-10T03:32:36.535Z,22.57
2018-11-10T03:35:05.411Z,22.53
2018-11-10T03:37:33.708Z,22.97
2018-11-10T03:40:02.325Z,22.47
2018-11-10T03:42:30.731Z,24.07
2018-11-10T03:44:59.073Z,24.00
2018-11-10T03:47:27.463Z,22.23
2018-11-10T03:49:55.839Z,22.20
2018-11-10T03:52:24.189Z,22.37
2018-11-10T03:54:52.498Z,21.67
2018-11-10T03:57:20.908Z,23.17
2018-11-10T03:59:49.193Z,22.77
2018-11-10T04:02:17.663Z,21.23
2018-11-10T04:04:46.091Z,22.13
2018-11-10T04:07:14.626Z,21.97
2018-11-10T04:09:43.382Z,22.27
2018-11-10T04:12:11.785Z,22.20
2018-11-10T04:14:40.310Z,22.30
2018-11-10T04:17:08.824Z,21.77
2018-11-10T04:19:37.146Z,22.37
2018-11-10T04:22:05.690Z,22.17
2018-11-10T04:24:34.122Z,22.13
2018-11-10T04:27:02.423Z,22.07
2018-11-10T04:29:30.755Z,22.00
2018-11-10T04:31:59.162Z,22.47
2018-11-10T04:34:27.451Z,22.20
2018-11-10T04:36:55.769Z,23.23
2018-11-10T04:39:24.306Z,23.67
2018-11-10T04:41:52.609Z,23.77
2018-11-10T04:44:21.103Z,23.07
2018-11-10T04:46:49.598Z,22.03
2018-11-10T04:49:18.095Z,22.20
2018-11-10T04:51:46.484Z,22.20
2018-11-10T04:54:14.759Z,21.93
2018-11-10T04:56:43.112Z,22.20
2018-11-10T04:59:11.412Z,21.87
2018-11-10T05:01:39.699Z,21.93
2018-11-10T05:04:08.082Z,21.83
2018-11-10T05:06:36.387Z,22.73
2018-11-10T05:09:06.133Z,21.97
2018-11-10T05:11:34.440Z,22.80
2018-11-10T05:14:02.834Z,21.73
2018-11-10T05:16:31.217Z,21.10
2018-11-10T05:18:59.595Z,22.17
2018-11-10T05:21:27.956Z,23.03
2018-11-10T05:23:56.260Z,22.47
2018-11-10T05:26:24.634Z,22.90
2018-11-10T05:28:52.943Z,22.97
2018-11-10T05:31:21.292Z,21.80
2018-11-10T05:33:49.651Z,22.33
2018-11-10T05:36:18.036Z,21.13
2018-11-10T05:38:46.398Z,21.73
2018-11-10T05:41:14.738Z,23.50
2018-11-10T05:43:43.090Z,21.80
2018-11-10T05:46:11.373Z,21.70
2018-11-10T05:48:39.687Z,20.47
2018-11-10T05:51:08.054Z,20.63
2018-11-10T05:53:36.417Z,21.50
2018-11-10T05:56:05.441Z,20.80
2018-11-10T05:58:33.775Z,21.13
2018-11-10T06:01:02.194Z,20.03
2018-11-10T06:03:30.530Z,19.37
2018-11-10T06:05:58.894Z,19.33
2018-11-10T06:08:27.214Z,19.47
2018-11-10T06:10:55.517Z,17.63
2018-11-10T06:13:24.129Z,18.03
2018-11-10T06:15:52.632Z,18.07
2018-11-10T06:18:21.011Z,17.83
2018-11-10T06:20:49.507Z,18.80
2018-11-10T06:23:17.867Z,17.50
2018-11-10T06:25:46.240Z,18.53
2018-11-10T06:28:15.490Z,18.90
2018-11-10T06:30:43.818Z,19.13
2018-11-10T06:33:12.126Z,19.67
2018-11-10T06:35:41.849Z,20.10
2018-11-10T06:38:11.030Z,20.97
2018-11-10T06:40:40.493Z,20.10
2018-11-10T06:43:08.924Z,19.60
2018-11-10T06:45:37.273Z,20.87
2018-11-10T06:48:05.944Z,21.50
2018-11-10T06:50:34.339Z,21.60
2018-11-10T06:53:03.923Z,23.13
2018-11-10T06:55:33.540Z,23.23
2018-11-10T06:58:02.738Z,22.73
2018-11-10T07:00:31.210Z,22.70
2018-11-10T07:02:59.526Z,21.90
2018-11-10T07:05:28.458Z,22.43
2018-11-10T07:07:56.818Z,22.20
2018-11-10T07:13:17.678Z,21.67
2018-11-10T07:15:46.330Z,21.80
2018-11-10T07:18:15.153Z,22.17
2018-11-10T07:20:45.092Z,22.13
2018-11-10T07:23:13.442Z,24.20
2018-11-10T07:25:41.905Z,27.07
2018-11-10T07:28:10.266Z,25.27
2018-11-10T07:30:38.894Z,24.43
2018-11-10T07:33:07.206Z,23.97
2018-11-10T07:35:35.534Z,22.87
2018-11-10T07:38:03.869Z,20.10
2018-11-10T07:40:32.181Z,20.30
2018-11-10T07:43:00.529Z,19.57
2018-11-10T07:45:28.836Z,19.47
2018-11-10T07:47:57.135Z,20.77
2018-11-10T07:50:25.623Z,19.77
2018-11-10T07:52:53.931Z,20.40
2018-11-10T07:55:22.487Z,20.00
2018-11-10T07:57:50.780Z,20.20
2018-11-10T08:00:19.588Z,20.23
2018-11-10T08:02:47.888Z,21.20
2018-11-10T08:05:16.955Z,21.77
2018-11-10T08:07:45.908Z,21.30
2018-11-10T08:10:16.304Z,20.33
2018-11-10T08:12:44.750Z,20.17
2018-11-10T08:15:14.802Z,20.97
2018-11-10T08:17:43.315Z,20.07
2018-11-10T08:20:12.508Z,20.43
2018-11-10T08:22:41.158Z,20.07
2018-11-10T08:25:12.155Z,20.17
2018-11-10T08:27:40.640Z,20.13
2018-11-10T08:30:11.116Z,19.20
2018-11-10T08:32:40.090Z,19.77
2018-11-10T08:35:10.202Z,19.00
2018-11-10T08:37:38.810Z,20.53
2018-11-10T08:40:09.154Z,20.77
2018-11-10T08:42:37.615Z,19.07
2018-11-10T08:45:08.088Z,19.60
2018-11-10T08:47:36.446Z,20.27
2018-11-10T08:50:05.638Z,19.50
2018-11-10T08:52:33.960Z,18.37
2018-11-10T08:55:02.436Z,19.47
2018-11-10T08:57:30.734Z,19.70
2018-11-10T08:59:59.044Z,19.63
2018-11-10T09:02:27.374Z,19.53
2018-11-10T09:04:55.716Z,19.20
2018-11-10T09:07:24.470Z,19.80
2018-11-10T09:09:53.067Z,19.27
2018-11-10T09:12:21.487Z,18.80
2018-11-10T09:14:49.854Z,19.43
2018-11-10T09:17:18.142Z,20.17
2018-11-10T09:19:46.473Z,20.57
2018-11-10T09:22:15.043Z,20.83
2018-11-10T09:24:43.319Z,19.50
2018-11-10T09:27:11.668Z,20.13
2018-11-10T09:29:40.083Z,23.50
2018-11-10T09:32:08.356Z,24.97
2018-11-10T09:34:36.664Z,23.80
2018-11-10T09:37:23.540Z,20.87
2018-11-10T09:39:51.900Z,19.07
2018-11-10T09:42:20.429Z,19.20
2018-11-10T09:44:48.696Z,18.40
2018-11-10T09:47:17.016Z,19.93
2018-11-10T09:49:49.142Z,19.50
2018-11-10T09:52:18.406Z,19.67
2018-11-10T09:54:47.811Z,18.63
2018-11-10T09:57:17.435Z,18.93
2018-11-10T09:59:47.600Z,19.40
2018-11-10T10:02:17.858Z,18.67
2018-11-10T10:04:46.049Z,18.67
2018-11-10T10:07:14.391Z,17.97
2018-11-10T10:09:42.714Z,18.27
2018-11-10T10:12:11.139Z,18.50
2018-11-10T10:14:39.415Z,18.57
2018-11-10T10:17:07.727Z,17.80
2018-11-10T10:19:36.031Z,17.63
2018-11-10T10:22:04.382Z,17.93
2018-11-10T10:24:32.672Z,17.00
2018-11-10T10:27:01.035Z,17.57
2018-11-10T10:29:29.330Z,17.37
2018-11-10T10:31:57.960Z,17.33
2018-11-10T10:34:26.403Z,17.03
2018-11-10T10:36:55.145Z,17.33
2018-11-10T10:39:23.551Z,17.33
2018-11-10T10:41:51.987Z,17.60
2018-11-10T10:44:20.414Z,16.30
2018-11-10T10:46:48.825Z,16.63
2018-11-10T10:49:17.537Z,16.73
2018-11-10T10:51:45.924Z,18.13
2018-11-10T10:54:14.851Z,17.60
2018-11-10T10:56:43.164Z,18.87
2018-11-10T10:59:11.584Z,18.57
2018-11-10T11:01:45.209Z,19.40
2018-11-10T11:04:18.892Z,19.20
2018-11-10T11:06:47.222Z,17.53
2018-11-10T11:09:15.602Z,18.07
2018-11-10T11:11:44.043Z,25.30
2018-11-10T11:14:12.382Z,17.33
2018-11-10T11:16:40.716Z,16.67
2018-11-10T11:19:09.133Z,17.20
2018-11-10T11:21:37.494Z,15.53
2018-11-10T11:24:06.158Z,15.83
2018-11-10T11:26:34.479Z,16.60
2018-11-10T11:29:02.813Z,15.90
2018-11-10T11:31:31.208Z,15.37
2018-11-10T11:33:59.546Z,16.13
2018-11-10T11:36:27.948Z,15.63
2018-11-10T11:38:56.254Z,16.37
2018-11-10T11:41:24.668Z,16.80
2018-11-10T11:43:52.919Z,14.77
2018-11-10T11:46:21.214Z,15.27
2018-11-10T11:48:49.524Z,14.83
2018-11-10T11:51:17.778Z,14.67
2018-11-10T11:53:46.118Z,15.43
2018-11-10T11:56:14.385Z,14.93
2018-11-10T11:58:42.711Z,15.00
2018-11-10T12:01:11.469Z,17.00
2018-11-10T12:03:39.844Z,16.13
2018-11-10T12:06:08.121Z,16.60
2018-11-10T12:08:36.428Z,16.37
2018-11-10T12:11:05.172Z,15.97
2018-11-10T12:13:33.521Z,16.63
2018-11-10T12:16:01.945Z,15.13
2018-11-10T12:18:30.275Z,16.30
2018-11-10T12:20:58.687Z,16.73
2018-11-10T12:23:27.062Z,17.23
2018-11-10T12:25:55.360Z,15.63
2018-11-10T12:28:23.950Z,15.97
2018-11-10T12:30:52.236Z,16.27
2018-11-10T12:33:21.451Z,18.10
2018-11-10T12:35:50.445Z,15.90
2018-11-10T12:38:18.987Z,17.07
2018-11-10T12:40:47.465Z,16.57
2018-11-10T12:43:15.888Z,16.20
2018-11-10T12:45:44.419Z,15.87
2018-11-10T12:48:12.731Z,15.63
2018-11-10T12:50:41.022Z,17.23
2018-11-10T12:53:09.326Z,15.30
2018-11-10T12:55:38.074Z,16.17
2018-11-10T12:58:06.504Z,17.00
2018-11-10T13:00:34.875Z,16.30
2018-11-10T13:03:03.400Z,15.73
2018-11-10T13:05:31.835Z,15.77
2018-11-10T13:08:00.386Z,16.50
2018-11-10T13:10:28.721Z,16.87
2018-11-10T13:12:57.259Z,16.47
2018-11-10T13:15:25.674Z,15.37
2018-11-10T13:17:54.044Z,15.77
2018-11-10T13:20:22.618Z,15.80
2018-11-10T13:22:50.921Z,15.33
2018-11-10T13:25:19.405Z,16.20
2018-11-10T13:27:47.827Z,16.40
2018-11-10T13:30:16.719Z,16.40
2018-11-10T13:32:45.622Z,16.47
2018-11-10T13:35:14.012Z,15.17
2018-11-10T13:37:42.311Z,15.57
2018-11-10T13:40:11.713Z,15.07
2018-11-10T13:42:40.180Z,23.40
2018-11-10T13:45:10.292Z,16.63
2018-11-10T13:47:38.670Z,15.90
2018-11-10T13:50:09.077Z,16.20
2018-11-10T13:52:38.267Z,15.80
2018-11-10T13:55:06.325Z,15.87
2018-11-10T13:57:34.658Z,15.73
2018-11-10T14:00:03.947Z,17.03
2018-11-10T14:02:32.302Z,14.97
2018-11-10T14:05:00.863Z,15.73
2018-11-10T14:07:29.181Z,15.83
2018-11-10T14:09:57.539Z,16.73
2018-11-10T14:12:26.231Z,17.00
2018-11-10T14:14:54.435Z,16.40
2018-11-10T14:17:22.822Z,14.93
2018-11-10T14:19:51.097Z,15.70
2018-11-10T14:22:19.406Z,16.43
2018-11-10T14:24:47.731Z,15.67
2018-11-10T14:27:16.023Z,16.53
2018-11-10T14:29:44.390Z,16.17
2018-11-10T14:32:12.683Z,15.60
2018-11-10T14:34:41.008Z,15.33
2018-11-10T14:37:09.351Z,15.73
2018-11-10T14:39:37.679Z,16.20
2018-11-10T14:42:06.007Z,16.03
2018-11-10T14:44:34.350Z,15.90
2018-11-10T14:47:02.787Z,16.07
2018-11-10T14:49:31.148Z,15.50
2018-11-10T14:51:59.580Z,16.10
2018-11-10T14:54:27.930Z,15.47
2018-11-10T14:56:56.587Z,16.17
2018-11-10T14:59:24.952Z,15.67
2018-11-10T15:01:53.234Z,16.63
2018-11-10T15:04:21.598Z,15.07
2018-11-10T15:06:51.661Z,15.73
2018-11-10T15:09:19.992Z,14.70
2018-11-10T15:11:48.436Z,16.27
2018-11-10T15:14:16.634Z,16.33
2018-11-10T15:16:44.952Z,15.27
2018-11-10T15:19:13.245Z,14.23
2018-11-10T15:21:41.571Z,15.10
2018-11-10T15:24:09.886Z,16.00
2018-11-10T15:26:38.785Z,15.70
2018-11-10T15:29:07.350Z,15.30
2018-11-10T15:31:36.768Z,15.20
2018-11-10T15:34:05.570Z,16.63
2018-11-10T15:36:34.625Z,14.97
2018-11-10T15:39:04.702Z,15.93
2018-11-10T15:41:33.287Z,15.63
2018-11-10T15:44:02.140Z,15.23
2018-11-10T15:46:30.616Z,15.90
2018-11-10T15:48:58.979Z,15.67
2018-11-10T15:51:27.262Z,17.73
2018-11-10T15:53:55.727Z,15.47
2018-11-10T15:56:24.052Z,14.90
2018-11-10T15:58:52.350Z,15.00
2018-11-10T16:01:20.850Z,16.63
2018-11-10T16:03:49.482Z,15.87
2018-11-10T16:06:17.736Z,17.80
2018-11-10T16:08:46.061Z,15.80
2018-11-10T16:11:14.459Z,16.50
2018-11-10T16:13:42.847Z,19.80
2018-11-10T16:16:11.345Z,16.77
2018-11-10T16:18:39.718Z,15.93
2018-11-10T16:21:08.816Z,16.10
2018-11-10T16:23:37.334Z,16.30
2018-11-10T16:26:05.826Z,15.57
2018-11-10T16:28:34.257Z,15.67
2018-11-10T16:31:02.743Z,15.03
2018-11-10T16:33:31.188Z,15.30
2018-11-10T16:36:01.293Z,14.73
2018-11-10T16:38:29.924Z,15.40
2018-11-10T16:40:58.263Z,16.17
2018-11-10T16:43:26.680Z,14.73
2018-11-10T16:45:55.114Z,15.83
2018-11-10T16:48:23.487Z,16.33
2018-11-10T16:50:52.287Z,14.80
2018-11-10T16:53:21.372Z,15.40
2018-11-10T16:55:49.811Z,15.60
2018-11-10T16:58:18.219Z,17.10
2018-11-10T17:00:46.777Z,15.47
2018-11-10T17:03:15.265Z,15.07
2018-11-10T17:05:43.926Z,14.67
2018-11-10T17:08:12.530Z,15.13
2018-11-10T17:10:40.931Z,16.90
2018-11-10T17:13:09.452Z,15.70
2018-11-10T17:15:37.924Z,15.77
2018-11-10T17:18:06.182Z,16.93
2018-11-10T17:20:34.494Z,16.77
2018-11-10T17:23:02.919Z,15.87
2018-11-10T17:25:31.276Z,19.70
2018-11-10T17:28:00.250Z,15.70
2018-11-10T17:30:29.725Z,16.47
2018-11-10T17:32:58.132Z,16.73
2018-11-10T17:35:27.118Z,16.17
2018-11-10T17:37:56.255Z,16.60
2018-11-10T17:40:24.877Z,16.07
2018-11-10T17:42:54.354Z,15.70
2018-11-10T17:45:23.005Z,16.57
2018-11-10T17:47:51.411Z,15.20
2018-11-10T17:50:19.825Z,16.53
2018-11-10T17:52:48.255Z,16.80
2018-11-10T17:55:17.428Z,15.63
2018-11-10T17:57:46.264Z,16.07
2018-11-10T18:00:14.778Z,15.77
2018-11-10T18:02:43.094Z,16.30
2018-11-10T18:05:13.250Z,16.07
2018-11-10T18:07:41.828Z,16.53
2018-11-10T18:10:12.151Z,15.93
2018-11-10T18:12:40.756Z,16.47
2018-11-10T18:15:10.016Z,16.77
2018-11-10T18:17:38.741Z,16.43
2018-11-10T18:20:08.114Z,16.97
2018-11-10T18:22:36.729Z,17.90
2018-11-10T18:25:05.638Z,17.10
2018-11-10T18:27:40.456Z,16.10
2018-11-10T18:30:11.416Z,16.90
2018-11-10T18:32:39.782Z,15.77
2018-11-10T18:38:16.330Z,16.63
2018-11-10T18:40:44.650Z,16.47
2018-11-10T18:43:12.979Z,15.93
2018-11-10T18:45:41.486Z,17.53
2018-11-10T18:48:09.818Z,17.33
2018-11-10T18:50:38.228Z,16.03
2018-11-10T18:53:06.737Z,16.40
2018-11-10T18:55:36.528Z,17.33
2018-11-10T18:58:04.913Z,16.43
2018-11-10T19:00:33.271Z,17.43
2018-11-10T19:03:01.595Z,16.50
2018-11-10T19:05:29.908Z,16.33
2018-11-10T19:07:58.351Z,16.03
2018-11-10T19:10:26.704Z,16.13
2018-11-10T19:12:55.053Z,17.43
2018-11-10T19:15:23.314Z,16.63
2018-11-10T19:17:51.679Z,17.07
2018-11-10T19:20:20.084Z,16.77
2018-11-10T19:22:48.494Z,17.50
2018-11-10T19:25:16.984Z,16.97
2018-11-10T19:27:45.462Z,17.23
2018-11-10T19:30:16.446Z,16.43
2018-11-10T19:32:45.426Z,16.93
2018-11-10T19:35:14.070Z,17.70
2018-11-10T19:37:42.582Z,17.77
2018-11-10T19:40:11.637Z,16.90
2018-11-10T19:42:41.235Z,18.77
2018-11-10T19:45:10.454Z,19.43
2018-11-10T19:47:40.187Z,18.63
2018-11-10T19:50:09.695Z,18.63
2018-11-10T19:52:39.104Z,17.77
2018-11-10T19:55:10.657Z,18.60
2018-11-10T19:57:39.103Z,18.10
2018-11-10T20:00:14.184Z,18.63
2018-11-10T20:02:43.259Z,17.83
2018-11-10T20:05:11.679Z,18.27
2018-11-10T20:07:40.436Z,19.27
2018-11-10T20:10:09.698Z,18.00
2018-11-10T20:12:38.783Z,18.60
2018-11-10T20:15:09.761Z,17.20
2018-11-10T20:17:38.887Z,18.47
2018-11-10T20:20:09.522Z,18.17
2018-11-10T20:22:38.373Z,18.33
2018-11-10T20:25:10.768Z,18.20
2018-11-10T20:27:40.551Z,19.03
2018-11-10T20:30:11.976Z,18.90
2018-11-10T20:32:42.529Z,19.07
2018-11-10T20:35:12.797Z,17.67
2018-11-10T20:37:43.051Z,20.17
2018-11-10T20:40:13.656Z,29.70
2018-11-10T20:42:42.601Z,18.47
2018-11-10T20:45:17.381Z,17.20
2018-11-10T20:47:51.030Z,18.20
2018-11-10T20:50:22.085Z,18.00
2018-11-10T20:52:50.469Z,17.97
2018-11-10T20:55:18.959Z,18.40
2018-11-10T20:57:47.741Z,17.20
2018-11-10T21:00:19.835Z,17.07
2018-11-10T21:02:48.087Z,17.03
2018-11-10T21:05:18.029Z,16.80
2018-11-10T21:07:50.044Z,17.93
2018-11-10T21:10:19.871Z,17.17
2018-11-10T21:12:49.716Z,17.30
2018-11-10T21:15:19.372Z,18.40
2018-11-10T21:17:48.199Z,24.30
2018-11-10T21:20:16.676Z,19.97
2018-11-10T21:22:46.703Z,18.33
2018-11-10T21:25:16.578Z,18.27
2018-11-10T21:27:48.304Z,17.50
2018-11-10T21:30:18.143Z,17.63
2018-11-10T21:32:47.124Z,18.43
2018-11-10T21:35:15.512Z,17.20
2018-11-10T21:37:45.666Z,17.23
2018-11-10T21:40:15.469Z,17.13
2018-11-10T21:42:44.337Z,17.90
2018-11-10T21:45:13.795Z,17.60
2018-11-10T21:47:42.226Z,17.43
2018-11-10T21:50:13.753Z,19.10
2018-11-10T21:52:44.920Z,17.10
2018-11-10T21:55:14.585Z,16.60
2018-11-10T21:57:43.701Z,17.90
2018-11-10T22:00:14.733Z,17.63
2018-11-10T22:02:43.677Z,17.90
2018-11-10T22:05:12.427Z,17.20
2018-11-10T22:07:40.716Z,18.27
2018-11-10T22:10:11.855Z,18.30
2018-11-10T22:12:40.555Z,17.23
2018-11-10T22:15:11.414Z,17.37
2018-11-10T22:17:41.458Z,17.67
2018-11-10T22:20:11.303Z,17.30
2018-11-10T22:22:41.365Z,16.73
2018-11-10T22:25:10.672Z,17.57
2018-11-10T22:27:41.016Z,16.93
2018-11-10T22:30:11.232Z,17.77
2018-11-10T22:32:39.609Z,16.97
2018-11-10T22:35:08.656Z,16.47
2018-11-10T22:37:38.475Z,17.20
2018-11-10T22:40:08.580Z,16.03
2018-11-10T22:42:37.734Z,16.37
2018-11-10T22:45:06.827Z,16.30
2018-11-10T22:47:35.159Z,16.17
2018-11-10T22:50:03.459Z,15.07
2018-11-10T22:52:32.458Z,15.50
2018-11-10T22:55:00.732Z,15.73
2018-11-10T22:57:29.188Z,15.57
2018-11-10T22:59:57.628Z,16.80
2018-11-10T23:02:26.367Z,16.63
2018-11-10T23:04:55.994Z,16.17
2018-11-10T23:07:24.302Z,15.03
2018-11-10T23:09:52.689Z,14.83
2018-11-10T23:12:21.072Z,15.03
2018-11-10T23:14:49.411Z,15.80
2018-11-10T23:17:17.760Z,15.13
2018-11-10T23:19:46.374Z,14.93
2018-11-10T23:22:14.882Z,15.23
2018-11-10T23:24:43.355Z,14.60
2018-11-10T23:27:11.671Z,14.57
2018-11-10T23:29:40.007Z,14.30
2018-11-10T23:32:08.398Z,15.27
2018-11-10T23:34:36.682Z,13.60
2018-11-10T23:37:05.502Z,13.60
2018-11-10T23:39:33.844Z,13.73
2018-11-10T23:42:02.365Z,13.90
2018-11-10T23:44:31.111Z,14.03
2018-11-10T23:46:59.898Z,13.37
2018-11-10T23:49:28.297Z,13.50
2018-11-10T23:51:56.886Z,14.23
2018-11-10T23:54:25.203Z,14.33
2018-11-10T23:56:53.687Z,14.20
2018-11-10T23:59:21.996Z,14.23
